Accueil
METAR-TAF:

METAR-TAF

Aéroports :

Jammu, Inde

latitude: 32-41-21N, longitude: 74-50-15E, altitude: 314 m

METAR: absent

Heure: 10:08 (04:38 UTC)

Prévision

Le bulletin a été fait il y a 19 heures et 8 minutes, à 09:30 UTC
Prévision valable du 21 à 18 UTC au 22 à 12 UTC
Vent 10 kt de sud-est
Visibilité: 6000 m
Nuages épars à une hauteur de 3000 ft
Nuages épars à une hauteur de 9000 ft
Temporairement
du 21 à 23 UTC au 22 à 02 UTC
Vent 10 kt de ouest/sud-ouest
Visibilité: 6000 m
Nuages épars à une hauteur de 2500 ft
Quelques nuages à une hauteur de 3000 ft, Cumulonimbus.
Nuages fragmentés à une hauteur de 9000 ft
orage, pluie,

TAF: VIJU 210930Z 2118/2212 14010KT 6000 SCT030 SCT090 TEMPO 2123/2202 24010KT 6000 TSRA SCT025 FEW030CB BKN090

Observations et prévisions météorologiques de plus de 4000 aéroports (messages METAR et TAF).

Les stations disponibles sont représentées par des disques jaunes et rouges sur la carte.

Passer la souris dessus pour voir le nom de la station.

Cliquer dessus pour voir les observations et prévisions météorologiques.

Pour changer de carte: cliquez sur les boutons verts avec une croix noire pour zoomer, sur le bouton vert avec un tiret pour effectuer un zoom arrière, ou sur les flèches vertes pour les cartes adjacentes.


METAR-TAF: